sensor_id;sensor_type;location;lat;lon;timestamp;pressure;altitude;pressure_sealevel;temperature;humidity
61436;BME280;47304;47.456;19.160;2023-01-28T00:01:17;100293.88;;;1.60;67.98
61436;BME280;47304;47.456;19.160;2023-01-28T00:03:44;100291.25;;;1.59;67.98
61436;BME280;47304;47.456;19.160;2023-01-28T00:06:12;100296.45;;;1.60;68.16
61436;BME280;47304;47.456;19.160;2023-01-28T00:08:40;100294.48;;;1.58;67.83
61436;BME280;47304;47.456;19.160;2023-01-28T00:11:10;100295.27;;;1.55;68.05
61436;BME280;47304;47.456;19.160;2023-01-28T00:13:37;100299.48;;;1.52;67.99
61436;BME280;47304;47.456;19.160;2023-01-28T00:16:05;100298.40;;;1.50;67.97
61436;BME280;47304;47.456;19.160;2023-01-28T00:18:32;100295.41;;;1.49;68.11
61436;BME280;47304;47.456;19.160;2023-01-28T00:21:02;100298.27;;;1.52;68.35
61436;BME280;47304;47.456;19.160;2023-01-28T00:23:32;100298.07;;;1.56;68.20
61436;BME280;47304;47.456;19.160;2023-01-28T00:26:01;100298.52;;;1.59;68.10
61436;BME280;47304;47.456;19.160;2023-01-28T00:28:28;100297.20;;;1.61;67.88
61436;BME280;47304;47.456;19.160;2023-01-28T00:30:54;100293.77;;;1.62;67.62
61436;BME280;47304;47.456;19.160;2023-01-28T00:33:21;100296.13;;;1.60;67.63
61436;BME280;47304;47.456;19.160;2023-01-28T00:35:56;100296.77;;;1.58;67.54
61436;BME280;47304;47.456;19.160;2023-01-28T00:38:23;100299.27;;;1.55;67.52
61436;BME280;47304;47.456;19.160;2023-01-28T00:40:49;100301.98;;;1.55;67.61
61436;BME280;47304;47.456;19.160;2023-01-28T00:43:16;100309.20;;;1.53;67.19
61436;BME280;47304;47.456;19.160;2023-01-28T00:45:42;100309.36;;;1.53;67.33
61436;BME280;47304;47.456;19.160;2023-01-28T00:48:09;100312.87;;;1.55;67.31
61436;BME280;47304;47.456;19.160;2023-01-28T00:50:35;100314.50;;;1.57;67.09
61436;BME280;47304;47.456;19.160;2023-01-28T00:53:03;100313.00;;;1.58;67.07
61436;BME280;47304;47.456;19.160;2023-01-28T00:55:29;100316.66;;;1.60;67.00
61436;BME280;47304;47.456;19.160;2023-01-28T00:57:56;100314.79;;;1.60;67.18
61436;BME280;47304;47.456;19.160;2023-01-28T01:00:22;100312.34;;;1.60;66.75
61436;BME280;47304;47.456;19.160;2023-01-28T01:02:49;100314.15;;;1.57;66.69
61436;BME280;47304;47.456;19.160;2023-01-28T01:05:15;100317.52;;;1.55;67.03
61436;BME280;47304;47.456;19.160;2023-01-28T01:07:42;100316.10;;;1.53;66.93
61436;BME280;47304;47.456;19.160;2023-01-28T01:10:14;100315.05;;;1.53;66.87
61436;BME280;47304;47.456;19.160;2023-01-28T01:12:41;100317.14;;;1.54;66.68
61436;BME280;47304;47.456;19.160;2023-01-28T01:15:09;100314.64;;;1.56;66.64
61436;BME280;47304;47.456;19.160;2023-01-28T01:17:40;100317.66;;;1.59;66.46
61436;BME280;47304;47.456;19.160;2023-01-28T01:20:13;100314.61;;;1.60;66.59
61436;BME280;47304;47.456;19.160;2023-01-28T01:22:40;100315.54;;;1.62;66.52
61436;BME280;47304;47.456;19.160;2023-01-28T01:25:07;100317.42;;;1.62;66.10
61436;BME280;47304;47.456;19.160;2023-01-28T01:27:34;100323.38;;;1.59;66.12
61436;BME280;47304;47.456;19.160;2023-01-28T01:30:00;100322.77;;;1.57;66.25
61436;BME280;47304;47.456;19.160;2023-01-28T01:32:31;100323.02;;;1.54;65.95
61436;BME280;47304;47.456;19.160;2023-01-28T01:34:58;100324.68;;;1.52;66.18
61436;BME280;47304;47.456;19.160;2023-01-28T01:37:24;100323.13;;;1.52;66.47
61436;BME280;47304;47.456;19.160;2023-01-28T01:39:51;100325.14;;;1.55;66.55
61436;BME280;47304;47.456;19.160;2023-01-28T01:42:17;100327.26;;;1.56;66.46
61436;BME280;47304;47.456;19.160;2023-01-28T01:45:00;100328.05;;;1.59;66.78
61436;BME280;47304;47.456;19.160;2023-01-28T01:47:35;100327.95;;;1.62;66.68
61436;BME280;47304;47.456;19.160;2023-01-28T01:52:55;100330.31;;;1.70;66.43
61436;BME280;47304;47.456;19.160;2023-01-28T01:55:24;100329.64;;;1.70;66.40
61436;BME280;47304;47.456;19.160;2023-01-28T01:57:54;100332.07;;;1.71;66.54
61436;BME280;47304;47.456;19.160;2023-01-28T02:00:22;100330.33;;;1.70;66.53
61436;BME280;47304;47.456;19.160;2023-01-28T02:02:50;100332.27;;;1.71;66.59
61436;BME280;47304;47.456;19.160;2023-01-28T02:05:20;100335.58;;;1.72;66.69
61436;BME280;47304;47.456;19.160;2023-01-28T02:07:50;100333.41;;;1.69;66.61
61436;BME280;47304;47.456;19.160;2023-01-28T02:10:17;100330.41;;;1.68;66.72
61436;BME280;47304;47.456;19.160;2023-01-28T02:12:50;100333.27;;;1.66;66.67
61436;BME280;47304;47.456;19.160;2023-01-28T02:15:21;100332.88;;;1.64;66.88
61436;BME280;47304;47.456;19.160;2023-01-28T02:17:49;100328.84;;;1.62;66.92
61436;BME280;47304;47.456;19.160;2023-01-28T02:20:42;100326.60;;;1.62;66.89
61436;BME280;47304;47.456;19.160;2023-01-28T02:28:22;100326.94;;;1.67;66.82
61436;BME280;47304;47.456;19.160;2023-01-28T02:36:50;100321.39;;;1.66;67.39
61436;BME280;47304;47.456;19.160;2023-01-28T02:39:22;100321.92;;;1.67;67.41
61436;BME280;47304;47.456;19.160;2023-01-28T02:41:56;100323.70;;;1.63;67.01
61436;BME280;47304;47.456;19.160;2023-01-28T02:44:25;100320.82;;;1.60;67.40
61436;BME280;47304;47.456;19.160;2023-01-28T02:46:52;100321.13;;;1.59;67.44
61436;BME280;47304;47.456;19.160;2023-01-28T02:57:28;100320.64;;;1.54;68.08
61436;BME280;47304;47.456;19.160;2023-01-28T03:00:19;100316.67;;;1.55;68.16
61436;BME280;47304;47.456;19.160;2023-01-28T03:02:58;100319.06;;;1.54;68.22
61436;BME280;47304;47.456;19.160;2023-01-28T03:05:40;100319.86;;;1.52;68.31
61436;BME280;47304;47.456;19.160;2023-01-28T03:08:08;100319.18;;;1.48;68.48
61436;BME280;47304;47.456;19.160;2023-01-28T03:10:35;100320.15;;;1.46;68.65
61436;BME280;47304;47.456;19.160;2023-01-28T03:13:03;100318.17;;;1.44;68.89
61436;BME280;47304;47.456;19.160;2023-01-28T03:15:36;100318.88;;;1.39;68.98
61436;BME280;47304;47.456;19.160;2023-01-28T03:23:43;100321.81;;;1.34;69.50
61436;BME280;47304;47.456;19.160;2023-01-28T03:26:14;100319.40;;;1.34;69.57
61436;BME280;47304;47.456;19.160;2023-01-28T03:28:42;100322.07;;;1.36;69.63
61436;BME280;47304;47.456;19.160;2023-01-28T03:31:14;100324.36;;;1.38;69.72
61436;BME280;47304;47.456;19.160;2023-01-28T03:33:42;100325.11;;;1.39;69.78
61436;BME280;47304;47.456;19.160;2023-01-28T03:36:10;100328.04;;;1.39;69.71
61436;BME280;47304;47.456;19.160;2023-01-28T03:38:38;100328.22;;;1.40;69.99
61436;BME280;47304;47.456;19.160;2023-01-28T03:41:10;100331.46;;;1.39;69.96
61436;BME280;47304;47.456;19.160;2023-01-28T03:43:37;100334.55;;;1.38;70.13
61436;BME280;47304;47.456;19.160;2023-01-28T03:46:04;100333.88;;;1.39;70.26
61436;BME280;47304;47.456;19.160;2023-01-28T03:48:31;100335.64;;;1.39;70.22
61436;BME280;47304;47.456;19.160;2023-01-28T03:50:57;100338.27;;;1.40;70.41
61436;BME280;47304;47.456;19.160;2023-01-28T03:53:24;100337.53;;;1.39;70.36
61436;BME280;47304;47.456;19.160;2023-01-28T03:55:52;100340.52;;;1.36;70.55
61436;BME280;47304;47.456;19.160;2023-01-28T03:58:20;100337.96;;;1.32;70.53
61436;BME280;47304;47.456;19.160;2023-01-28T04:00:46;100338.52;;;1.28;70.75
61436;BME280;47304;47.456;19.160;2023-01-28T04:03:16;100340.20;;;1.28;70.96
61436;BME280;47304;47.456;19.160;2023-01-28T04:05:57;100339.34;;;1.27;70.96
61436;BME280;47304;47.456;19.160;2023-01-28T04:08:25;100336.92;;;1.27;71.06
61436;BME280;47304;47.456;19.160;2023-01-28T04:10:51;100338.41;;;1.26;71.06
61436;BME280;47304;47.456;19.160;2023-01-28T04:13:18;100337.08;;;1.22;71.19
61436;BME280;47304;47.456;19.160;2023-01-28T04:15:45;100340.30;;;1.20;71.28
61436;BME280;47304;47.456;19.160;2023-01-28T04:18:12;100337.15;;;1.19;71.54
61436;BME280;47304;47.456;19.160;2023-01-28T04:20:39;100341.29;;;1.19;71.49
61436;BME280;47304;47.456;19.160;2023-01-28T04:23:06;100340.34;;;1.17;71.45
61436;BME280;47304;47.456;19.160;2023-01-28T04:25:33;100342.48;;;1.14;71.48
61436;BME280;47304;47.456;19.160;2023-01-28T04:28:00;100340.73;;;1.13;71.68
61436;BME280;47304;47.456;19.160;2023-01-28T04:30:26;100339.77;;;1.15;71.65
61436;BME280;47304;47.456;19.160;2023-01-28T04:32:53;100342.02;;;1.16;71.68
61436;BME280;47304;47.456;19.160;2023-01-28T04:35:19;100344.89;;;1.14;71.76
61436;BME280;47304;47.456;19.160;2023-01-28T04:37:46;100347.58;;;1.12;71.80
61436;BME280;47304;47.456;19.160;2023-01-28T04:40:12;100350.44;;;1.10;71.85
61436;BME280;47304;47.456;19.160;2023-01-28T04:42:39;100351.23;;;1.08;71.98
61436;BME280;47304;47.456;19.160;2023-01-28T04:45:06;100349.98;;;1.07;71.94
61436;BME280;47304;47.456;19.160;2023-01-28T04:47:33;100352.58;;;1.07;71.99
61436;BME280;47304;47.456;19.160;2023-01-28T04:49:59;100356.43;;;1.09;72.10
61436;BME280;47304;47.456;19.160;2023-01-28T04:52:26;100353.29;;;1.12;72.02
61436;BME280;47304;47.456;19.160;2023-01-28T04:54:52;100354.63;;;1.16;71.97
61436;BME280;47304;47.456;19.160;2023-01-28T04:57:19;100354.80;;;1.21;71.92
61436;BME280;47304;47.456;19.160;2023-01-28T04:59:45;100355.52;;;1.21;71.90
61436;BME280;47304;47.456;19.160;2023-01-28T05:02:12;100356.71;;;1.21;71.78
61436;BME280;47304;47.456;19.160;2023-01-28T05:04:38;100364.08;;;1.20;71.81
61436;BME280;47304;47.456;19.160;2023-01-28T05:07:05;100365.59;;;1.19;71.92
61436;BME280;47304;47.456;19.160;2023-01-28T05:09:31;100364.21;;;1.18;71.77
61436;BME280;47304;47.456;19.160;2023-01-28T05:11:58;100363.73;;;1.19;71.83
61436;BME280;47304;47.456;19.160;2023-01-28T05:14:24;100368.17;;;1.23;71.87
61436;BME280;47304;47.456;19.160;2023-01-28T05:16:51;100370.20;;;1.26;71.74
61436;BME280;47304;47.456;19.160;2023-01-28T05:19:17;100371.11;;;1.28;71.53
61436;BME280;47304;47.456;19.160;2023-01-28T05:21:44;100379.91;;;1.28;71.45
61436;BME280;47304;47.456;19.160;2023-01-28T05:24:11;100381.09;;;1.27;71.55
61436;BME280;47304;47.456;19.160;2023-01-28T05:26:37;100384.36;;;1.27;71.49
61436;BME280;47304;47.456;19.160;2023-01-28T05:29:04;100382.09;;;1.26;71.62
61436;BME280;47304;47.456;19.160;2023-01-28T05:31:31;100387.38;;;1.24;71.55
61436;BME280;47304;47.456;19.160;2023-01-28T05:33:58;100388.38;;;1.23;71.47
61436;BME280;47304;47.456;19.160;2023-01-28T05:36:24;100387.88;;;1.23;71.64
61436;BME280;47304;47.456;19.160;2023-01-28T05:38:51;100390.36;;;1.26;71.63
61436;BME280;47304;47.456;19.160;2023-01-28T05:41:17;100385.94;;;1.27;71.46
61436;BME280;47304;47.456;19.160;2023-01-28T05:43:43;100393.08;;;1.29;71.49
61436;BME280;47304;47.456;19.160;2023-01-28T05:46:10;100391.00;;;1.29;71.41
61436;BME280;47304;47.456;19.160;2023-01-28T05:48:36;100394.10;;;1.29;71.42
61436;BME280;47304;47.456;19.160;2023-01-28T05:51:03;100398.91;;;1.28;71.42
61436;BME280;47304;47.456;19.160;2023-01-28T05:53:31;100398.54;;;1.28;71.43
61436;BME280;47304;47.456;19.160;2023-01-28T05:55:57;100395.77;;;1.28;71.62
61436;BME280;47304;47.456;19.160;2023-01-28T05:58:24;100401.03;;;1.29;71.58
61436;BME280;47304;47.456;19.160;2023-01-28T06:00:53;100398.45;;;1.29;71.54
61436;BME280;47304;47.456;19.160;2023-01-28T06:03:20;100400.84;;;1.29;71.40
61436;BME280;47304;47.456;19.160;2023-01-28T06:05:47;100403.83;;;1.30;71.45
61436;BME280;47304;47.456;19.160;2023-01-28T06:08:14;100407.38;;;1.33;71.33
61436;BME280;47304;47.456;19.160;2023-01-28T06:10:40;100409.48;;;1.34;71.31
61436;BME280;47304;47.456;19.160;2023-01-28T06:13:07;100408.46;;;1.34;71.36
61436;BME280;47304;47.456;19.160;2023-01-28T06:15:33;100410.95;;;1.36;71.46
61436;BME280;47304;47.456;19.160;2023-01-28T06:18:00;100417.55;;;1.37;71.32
61436;BME280;47304;47.456;19.160;2023-01-28T06:20:26;100418.64;;;1.38;71.43
61436;BME280;47304;47.456;19.160;2023-01-28T06:22:53;100420.39;;;1.39;71.35
61436;BME280;47304;47.456;19.160;2023-01-28T06:25:19;100429.30;;;1.37;71.23
61436;BME280;47304;47.456;19.160;2023-01-28T06:27:46;100425.98;;;1.36;71.13
61436;BME280;47304;47.456;19.160;2023-01-28T06:30:12;100427.92;;;1.37;71.22
61436;BME280;47304;47.456;19.160;2023-01-28T06:32:40;100432.03;;;1.41;71.36
61436;BME280;47304;47.456;19.160;2023-01-28T06:35:06;100435.76;;;1.44;71.35
61436;BME280;47304;47.456;19.160;2023-01-28T06:37:33;100435.31;;;1.46;71.39
61436;BME280;47304;47.456;19.160;2023-01-28T06:40:00;100444.48;;;1.46;71.28
61436;BME280;47304;47.456;19.160;2023-01-28T06:42:26;100448.05;;;1.45;71.49
61436;BME280;47304;47.456;19.160;2023-01-28T06:44:53;100448.55;;;1.45;71.46
61436;BME280;47304;47.456;19.160;2023-01-28T06:47:19;100452.23;;;1.46;71.57
61436;BME280;47304;47.456;19.160;2023-01-28T06:49:46;100456.98;;;1.48;71.69
61436;BME280;47304;47.456;19.160;2023-01-28T06:52:12;100462.76;;;1.50;71.75
61436;BME280;47304;47.456;19.160;2023-01-28T06:54:39;100465.06;;;1.52;71.61
61436;BME280;47304;47.456;19.160;2023-01-28T06:57:05;100466.36;;;1.54;71.71
61436;BME280;47304;47.456;19.160;2023-01-28T06:59:32;100471.09;;;1.56;71.77
61436;BME280;47304;47.456;19.160;2023-01-28T07:01:58;100471.74;;;1.55;71.69
61436;BME280;47304;47.456;19.160;2023-01-28T07:04:25;100474.02;;;1.51;71.75
61436;BME280;47304;47.456;19.160;2023-01-28T07:06:51;100480.80;;;1.48;71.92
61436;BME280;47304;47.456;19.160;2023-01-28T07:09:18;100479.06;;;1.48;72.04
61436;BME280;47304;47.456;19.160;2023-01-28T07:11:44;100481.64;;;1.48;72.13
61436;BME280;47304;47.456;19.160;2023-01-28T07:14:11;100486.66;;;1.48;72.30
61436;BME280;47304;47.456;19.160;2023-01-28T07:16:37;100486.48;;;1.48;72.35
61436;BME280;47304;47.456;19.160;2023-01-28T07:19:04;100487.11;;;1.46;72.40
61436;BME280;47304;47.456;19.160;2023-01-28T07:21:30;100488.56;;;1.44;72.46
61436;BME280;47304;47.456;19.160;2023-01-28T07:23:57;100491.81;;;1.43;72.51
61436;BME280;47304;47.456;19.160;2023-01-28T07:26:23;100497.46;;;1.46;72.72
61436;BME280;47304;47.456;19.160;2023-01-28T07:28:50;100495.34;;;1.49;72.75
61436;BME280;47304;47.456;19.160;2023-01-28T07:31:16;100496.96;;;1.51;72.86
61436;BME280;47304;47.456;19.160;2023-01-28T07:33:43;100502.13;;;1.50;72.97
61436;BME280;47304;47.456;19.160;2023-01-28T07:36:09;100502.48;;;1.51;73.23
61436;BME280;47304;47.456;19.160;2023-01-28T07:38:36;100502.23;;;1.54;73.36
61436;BME280;47304;47.456;19.160;2023-01-28T07:41:02;100502.67;;;1.56;73.57
61436;BME280;47304;47.456;19.160;2023-01-28T07:43:29;100508.31;;;1.54;73.59
61436;BME280;47304;47.456;19.160;2023-01-28T07:45:59;100505.23;;;1.50;74.17
61436;BME280;47304;47.456;19.160;2023-01-28T07:48:26;100506.52;;;1.48;74.39
61436;BME280;47304;47.456;19.160;2023-01-28T07:50:52;100505.88;;;1.45;74.71
61436;BME280;47304;47.456;19.160;2023-01-28T07:53:19;100506.47;;;1.42;74.64
61436;BME280;47304;47.456;19.160;2023-01-28T07:55:45;100507.36;;;1.43;74.72
61436;BME280;47304;47.456;19.160;2023-01-28T07:58:12;100511.70;;;1.44;75.09
61436;BME280;47304;47.456;19.160;2023-01-28T08:00:38;100510.46;;;1.47;75.09
61436;BME280;47304;47.456;19.160;2023-01-28T08:03:12;100512.66;;;1.50;75.19
61436;BME280;47304;47.456;19.160;2023-01-28T08:05:44;100515.73;;;1.54;75.22
61436;BME280;47304;47.456;19.160;2023-01-28T08:08:11;100514.99;;;1.57;75.26
61436;BME280;47304;47.456;19.160;2023-01-28T08:10:38;100517.67;;;1.55;75.09
61436;BME280;47304;47.456;19.160;2023-01-28T08:13:06;100518.36;;;1.50;75.13
61436;BME280;47304;47.456;19.160;2023-01-28T08:15:33;100520.70;;;1.49;75.24
61436;BME280;47304;47.456;19.160;2023-01-28T08:18:02;100522.55;;;1.47;75.50
61436;BME280;47304;47.456;19.160;2023-01-28T08:20:29;100519.58;;;1.46;75.66
61436;BME280;47304;47.456;19.160;2023-01-28T08:23:07;100520.80;;;1.47;75.75
61436;BME280;47304;47.456;19.160;2023-01-28T08:25:34;100524.66;;;1.48;75.90
61436;BME280;47304;47.456;19.160;2023-01-28T08:28:02;100525.30;;;1.51;76.22
61436;BME280;47304;47.456;19.160;2023-01-28T08:30:29;100526.83;;;1.55;76.33
61436;BME280;47304;47.456;19.160;2023-01-28T08:32:57;100535.93;;;1.54;76.21
61436;BME280;47304;47.456;19.160;2023-01-28T08:35:24;100537.22;;;1.51;76.00
61436;BME280;47304;47.456;19.160;2023-01-28T08:37:52;100538.65;;;1.53;76.13
61436;BME280;47304;47.456;19.160;2023-01-28T08:40:19;100539.70;;;1.57;75.94
61436;BME280;47304;47.456;19.160;2023-01-28T08:42:50;100543.94;;;1.64;76.15
61436;BME280;47304;47.456;19.160;2023-01-28T08:45:18;100542.77;;;1.70;75.91
61436;BME280;47304;47.456;19.160;2023-01-28T08:47:56;100546.89;;;1.74;75.86
61436;BME280;47304;47.456;19.160;2023-01-28T08:50:24;100547.63;;;1.76;75.96
61436;BME280;47304;47.456;19.160;2023-01-28T08:52:55;100545.48;;;1.78;75.85
61436;BME280;47304;47.456;19.160;2023-01-28T08:55:23;100553.36;;;1.76;75.72
61436;BME280;47304;47.456;19.160;2023-01-28T08:57:50;100555.19;;;1.75;75.63
61436;BME280;47304;47.456;19.160;2023-01-28T09:00:17;100553.75;;;1.73;75.84
61436;BME280;47304;47.456;19.160;2023-01-28T09:02:44;100561.83;;;1.76;75.87
61436;BME280;47304;47.456;19.160;2023-01-28T09:05:11;100560.70;;;1.78;75.93
61436;BME280;47304;47.456;19.160;2023-01-28T09:07:37;100561.81;;;1.81;75.83
61436;BME280;47304;47.456;19.160;2023-01-28T09:10:05;100563.81;;;1.83;75.94
61436;BME280;47304;47.456;19.160;2023-01-28T09:12:32;100561.25;;;1.80;75.73
61436;BME280;47304;47.456;19.160;2023-01-28T09:14:58;100569.45;;;1.77;75.75
61436;BME280;47304;47.456;19.160;2023-01-28T09:17:25;100568.09;;;1.68;75.97
61436;BME280;47304;47.456;19.160;2023-01-28T09:19:51;100569.13;;;1.64;76.33
61436;BME280;47304;47.456;19.160;2023-01-28T09:22:18;100571.41;;;1.65;76.57
61436;BME280;47304;47.456;19.160;2023-01-28T09:24:44;100574.98;;;1.68;76.31
61436;BME280;47304;47.456;19.160;2023-01-28T09:27:11;100575.25;;;1.80;76.09
61436;BME280;47304;47.456;19.160;2023-01-28T09:29:37;100577.66;;;1.93;75.94
61436;BME280;47304;47.456;19.160;2023-01-28T09:32:08;100574.98;;;2.04;75.31
61436;BME280;47304;47.456;19.160;2023-01-28T09:34:34;100579.02;;;2.06;74.44
61436;BME280;47304;47.456;19.160;2023-01-28T09:37:01;100580.56;;;2.11;74.94
61436;BME280;47304;47.456;19.160;2023-01-28T09:39:27;100576.94;;;2.20;75.03
61436;BME280;47304;47.456;19.160;2023-01-28T09:42:07;100575.02;;;2.29;74.51
61436;BME280;47304;47.456;19.160;2023-01-28T09:44:57;100572.16;;;2.36;74.29
61436;BME280;47304;47.456;19.160;2023-01-28T09:47:32;100565.23;;;2.45;74.16
61436;BME280;47304;47.456;19.160;2023-01-28T09:50:04;100566.65;;;2.57;73.96
61436;BME280;47304;47.456;19.160;2023-01-28T09:52:36;100561.50;;;2.73;73.59
61436;BME280;47304;47.456;19.160;2023-01-28T09:55:42;100562.00;;;2.93;73.45
61436;BME280;47304;47.456;19.160;2023-01-28T09:58:11;100559.91;;;3.18;72.98
61436;BME280;47304;47.456;19.160;2023-01-28T10:14:07;100554.03;;;4.23;68.71
61436;BME280;47304;47.456;19.160;2023-01-28T10:17:20;100556.64;;;4.35;67.24
61436;BME280;47304;47.456;19.160;2023-01-28T10:19:58;100549.56;;;4.75;67.62
61436;BME280;47304;47.456;19.160;2023-01-28T10:22:30;100551.32;;;4.97;67.49
61436;BME280;47304;47.456;19.160;2023-01-28T10:25:06;100547.11;;;5.16;66.87
61436;BME280;47304;47.456;19.160;2023-01-28T10:27:41;100550.39;;;5.53;66.15
61436;BME280;47304;47.456;19.160;2023-01-28T10:30:18;100550.77;;;6.35;64.59
61436;BME280;47304;47.456;19.160;2023-01-28T10:35:18;100544.54;;;6.64;60.31
61436;BME280;47304;47.456;19.160;2023-01-28T10:37:45;100548.48;;;6.42;61.39
61436;BME280;47304;47.456;19.160;2023-01-28T10:40:15;100549.47;;;6.30;61.92
61436;BME280;47304;47.456;19.160;2023-01-28T10:42:43;100552.05;;;6.21;61.98
61436;BME280;47304;47.456;19.160;2023-01-28T10:47:57;100554.88;;;5.90;62.77
61436;BME280;47304;47.456;19.160;2023-01-28T10:50:26;100554.75;;;5.85;62.86
61436;BME280;47304;47.456;19.160;2023-01-28T10:52:57;100549.80;;;5.73;62.69
61436;BME280;47304;47.456;19.160;2023-01-28T10:55:53;100551.71;;;5.57;62.40
61436;BME280;47304;47.456;19.160;2023-01-28T10:58:26;100553.18;;;5.45;62.77
61436;BME280;47304;47.456;19.160;2023-01-28T11:00:56;100549.17;;;5.38;63.03
61436;BME280;47304;47.456;19.160;2023-01-28T11:03:25;100553.74;;;5.32;63.25
61436;BME280;47304;47.456;19.160;2023-01-28T11:05:54;100552.88;;;5.25;63.07
61436;BME280;47304;47.456;19.160;2023-01-28T11:08:22;100551.05;;;5.07;62.79
61436;BME280;47304;47.456;19.160;2023-01-28T11:10:51;100547.66;;;4.90;63.05
61436;BME280;47304;47.456;19.160;2023-01-28T11:15:47;100543.39;;;4.71;63.62
61436;BME280;47304;47.456;19.160;2023-01-28T11:18:21;100542.67;;;4.64;63.83
61436;BME280;47304;47.456;19.160;2023-01-28T11:21:16;100543.69;;;4.57;63.92
61436;BME280;47304;47.456;19.160;2023-01-28T11:23:50;100544.02;;;4.56;64.39
61436;BME280;47304;47.456;19.160;2023-01-28T11:26:22;100540.80;;;4.59;64.40
61436;BME280;47304;47.456;19.160;2023-01-28T11:28:50;100537.92;;;4.61;64.30
61436;BME280;47304;47.456;19.160;2023-01-28T11:31:19;100539.12;;;4.61;64.25
61436;BME280;47304;47.456;19.160;2023-01-28T11:33:57;100539.42;;;4.60;64.25
61436;BME280;47304;47.456;19.160;2023-01-28T11:36:26;100540.48;;;4.60;64.18
61436;BME280;47304;47.456;19.160;2023-01-28T11:38:55;100538.48;;;4.57;64.36
61436;BME280;47304;47.456;19.160;2023-01-28T11:41:29;100537.66;;;4.52;64.22
61436;BME280;47304;47.456;19.160;2023-01-28T11:43:57;100533.49;;;4.45;63.50
61436;BME280;47304;47.456;19.160;2023-01-28T11:52:09;100526.53;;;4.31;63.78
61436;BME280;47304;47.456;19.160;2023-01-28T12:00:37;100517.61;;;4.48;62.46
61436;BME280;47304;47.456;19.160;2023-01-28T12:03:39;100516.31;;;4.45;62.23
61436;BME280;47304;47.456;19.160;2023-01-28T12:09:14;100520.27;;;4.31;61.58
61436;BME280;47304;47.456;19.160;2023-01-28T12:22:32;100519.59;;;4.45;61.52
61436;BME280;47304;47.456;19.160;2023-01-28T12:41:47;100511.31;;;4.80;60.30
61436;BME280;47304;47.456;19.160;2023-01-28T12:44:24;100509.98;;;4.82;60.31
61436;BME280;47304;47.456;19.160;2023-01-28T12:47:05;100508.52;;;4.86;60.53
61436;BME280;47304;47.456;19.160;2023-01-28T12:50:13;100509.44;;;4.89;60.81
61436;BME280;47304;47.456;19.160;2023-01-28T12:52:53;100512.83;;;4.92;60.99
61436;BME280;47304;47.456;19.160;2023-01-28T12:58:02;100518.67;;;4.97;60.74
61436;BME280;47304;47.456;19.160;2023-01-28T13:00:35;100521.11;;;4.97;60.73
61436;BME280;47304;47.456;19.160;2023-01-28T13:06:14;100524.61;;;4.98;60.65
61436;BME280;47304;47.456;19.160;2023-01-28T13:08:43;100527.08;;;4.99;60.60
61436;BME280;47304;47.456;19.160;2023-01-28T13:11:15;100532.15;;;4.94;59.85
61436;BME280;47304;47.456;19.160;2023-01-28T13:13:44;100530.84;;;4.83;58.73
61436;BME280;47304;47.456;19.160;2023-01-28T13:16:12;100534.10;;;4.75;59.71
61436;BME280;47304;47.456;19.160;2023-01-28T13:24:03;100535.65;;;4.67;59.61
61436;BME280;47304;47.456;19.160;2023-01-28T13:31:42;100541.15;;;4.52;59.08
61436;BME280;47304;47.456;19.160;2023-01-28T13:36:56;100542.16;;;4.45;58.74
61436;BME280;47304;47.456;19.160;2023-01-28T13:39:25;100546.27;;;4.43;59.11
61436;BME280;47304;47.456;19.160;2023-01-28T13:42:08;100546.47;;;4.44;59.35
61436;BME280;47304;47.456;19.160;2023-01-28T13:44:36;100553.87;;;4.48;59.34
61436;BME280;47304;47.456;19.160;2023-01-28T13:49:41;100554.48;;;4.51;59.49
61436;BME280;47304;47.456;19.160;2023-01-28T13:52:28;100557.84;;;4.47;58.98
61436;BME280;47304;47.456;19.160;2023-01-28T13:54:59;100563.69;;;4.45;59.43
61436;BME280;47304;47.456;19.160;2023-01-28T14:16:51;100577.09;;;4.47;59.02
61436;BME280;47304;47.456;19.160;2023-01-28T14:19:30;100576.27;;;4.43;59.36
61436;BME280;47304;47.456;19.160;2023-01-28T14:21:58;100580.20;;;4.41;59.77
61436;BME280;47304;47.456;19.160;2023-01-28T14:24:24;100580.27;;;4.36;59.78
61436;BME280;47304;47.456;19.160;2023-01-28T14:27:07;100581.54;;;4.32;59.89
61436;BME280;47304;47.456;19.160;2023-01-28T14:32:25;100586.63;;;4.22;60.17
61436;BME280;47304;47.456;19.160;2023-01-28T14:34:54;100592.39;;;4.17;60.50
61436;BME280;47304;47.456;19.160;2023-01-28T14:37:27;100591.73;;;4.13;60.71
61436;BME280;47304;47.456;19.160;2023-01-28T14:40:15;100591.63;;;4.09;60.66
61436;BME280;47304;47.456;19.160;2023-01-28T14:42:45;100596.35;;;4.04;60.78
61436;BME280;47304;47.456;19.160;2023-01-28T14:47:58;100600.88;;;4.00;60.44
61436;BME280;47304;47.456;19.160;2023-01-28T14:55:55;100603.04;;;3.79;61.15
61436;BME280;47304;47.456;19.160;2023-01-28T14:58:28;100607.15;;;3.78;61.37
61436;BME280;47304;47.456;19.160;2023-01-28T15:00:58;100611.44;;;3.76;61.29
61436;BME280;47304;47.456;19.160;2023-01-28T15:03:27;100609.97;;;3.73;61.34
61436;BME280;47304;47.456;19.160;2023-01-28T15:06:06;100608.71;;;3.72;61.59
61436;BME280;47304;47.456;19.160;2023-01-28T15:08:37;100612.10;;;3.70;61.66
61436;BME280;47304;47.456;19.160;2023-01-28T15:11:08;100611.88;;;3.68;62.18
61436;BME280;47304;47.456;19.160;2023-01-28T15:13:42;100613.60;;;3.68;62.06
61436;BME280;47304;47.456;19.160;2023-01-28T15:16:19;100613.55;;;3.66;62.39
61436;BME280;47304;47.456;19.160;2023-01-28T15:18:47;100617.52;;;3.65;62.37
61436;BME280;47304;47.456;19.160;2023-01-28T15:21:21;100621.02;;;3.62;62.26
61436;BME280;47304;47.456;19.160;2023-01-28T15:23:51;100627.35;;;3.58;62.48
61436;BME280;47304;47.456;19.160;2023-01-28T15:26:22;100628.00;;;3.57;62.54